createdAt,value
2022-10-23T00:01:47.580Z,26.80
2022-10-23T00:04:21.849Z,28.20
2022-10-23T00:06:49.977Z,28.10
2022-10-23T00:09:21.919Z,26.80
2022-10-23T00:11:51.551Z,26.60
2022-10-23T00:14:23.093Z,32.10
2022-10-23T00:16:51.460Z,29.60
2022-10-23T00:19:19.302Z,31.70
2022-10-23T00:21:47.209Z,28.90
2022-10-23T00:24:15.065Z,30.30
2022-10-23T00:26:43.012Z,29.20
2022-10-23T00:29:11.338Z,32.70
2022-10-23T00:31:39.566Z,28.40
2022-10-23T00:34:08.634Z,32.70
2022-10-23T00:36:38.060Z,31.30
2022-10-23T00:39:06.314Z,29.40
2022-10-23T00:41:35.070Z,29.90
2022-10-23T00:44:05.250Z,31.30
2022-10-23T00:46:33.708Z,28.10
2022-10-23T00:49:02.680Z,31.20
2022-10-23T00:51:39.199Z,30.60
2022-10-23T00:54:25.093Z,30.50
2022-10-23T00:56:56.262Z,31.40
2022-10-23T00:59:24.611Z,29.50
2022-10-23T01:01:52.723Z,30.50
2022-10-23T01:04:22.549Z,30.00
2022-10-23T01:07:02.713Z,32.30
2022-10-23T01:10:07.996Z,30.40
2022-10-23T01:12:47.227Z,29.20
2022-10-23T01:15:21.416Z,29.60
2022-10-23T01:18:00.115Z,30.70
2022-10-23T01:20:45.456Z,33.10
2022-10-23T01:23:29.235Z,33.30
2022-10-23T01:26:24.342Z,33.30
2022-10-23T01:28:57.955Z,33.90
2022-10-23T01:31:37.503Z,33.40
2022-10-23T01:34:22.457Z,35.50
2022-10-23T01:36:53.410Z,32.60
2022-10-23T01:39:27.831Z,35.80
2022-10-23T01:42:22.589Z,33.10
2022-10-23T01:44:58.652Z,33.40
2022-10-23T01:47:31.190Z,32.60
2022-10-23T01:50:06.373Z,30.20
2022-10-23T01:52:34.987Z,30.00
2022-10-23T01:55:07.532Z,29.60
2022-10-23T01:57:39.587Z,28.90
2022-10-23T02:00:12.570Z,30.70
2022-10-23T02:02:54.764Z,32.40
2022-10-23T02:05:29.609Z,31.70
2022-10-23T02:07:59.323Z,28.80
2022-10-23T02:10:43.494Z,30.00
2022-10-23T02:13:25.103Z,29.20
2022-10-23T02:16:24.313Z,28.00
2022-10-23T02:18:52.107Z,29.30
2022-10-23T02:21:41.643Z,29.10
2022-10-23T02:24:13.789Z,28.20
2022-10-23T02:26:57.358Z,27.40
2022-10-23T02:29:34.730Z,29.20
2022-10-23T02:32:03.543Z,29.50
2022-10-23T02:34:31.885Z,28.70
2022-10-23T02:36:59.811Z,26.10
2022-10-23T02:39:28.959Z,19.90
2022-10-23T02:42:03.081Z,20.70
2022-10-23T02:44:42.978Z,18.90
2022-10-23T02:47:39.316Z,21.80
2022-10-23T02:50:34.900Z,19.90
2022-10-23T02:53:28.093Z,17.10
2022-10-23T02:56:28.169Z,16.70
2022-10-23T02:59:21.670Z,16.30
2022-10-23T03:02:19.659Z,17.20
2022-10-23T03:04:48.859Z,16.00
2022-10-23T03:07:19.645Z,17.80
2022-10-23T03:09:47.912Z,16.30
2022-10-23T03:12:15.890Z,15.00
2022-10-23T03:14:43.741Z,14.00
2022-10-23T03:17:11.586Z,15.00
2022-10-23T03:19:39.452Z,14.90
2022-10-23T03:22:07.313Z,12.50
2022-10-23T03:24:35.263Z,15.00
2022-10-23T03:27:03.269Z,13.70
2022-10-23T03:29:32.851Z,11.40
2022-10-23T03:32:00.672Z,12.20
2022-10-23T03:34:28.619Z,14.00
2022-10-23T03:36:56.445Z,12.30
2022-10-23T03:39:24.318Z,10.60
2022-10-23T03:41:52.239Z,10.30
2022-10-23T03:44:22.549Z,9.60
2022-10-23T03:46:50.577Z,7.90
2022-10-23T03:49:18.519Z,9.30
2022-10-23T03:51:52.042Z,6.60
2022-10-23T03:54:23.826Z,8.80
2022-10-23T03:56:56.521Z,8.10
2022-10-23T03:59:25.747Z,7.80
2022-10-23T04:01:54.359Z,8.80
2022-10-23T04:04:25.252Z,7.80
2022-10-23T04:06:53.188Z,6.40
2022-10-23T04:09:21.943Z,7.00
2022-10-23T04:11:49.849Z,6.20
2022-10-23T04:14:18.039Z,6.40
2022-10-23T04:16:45.952Z,6.10
2022-10-23T04:19:14.093Z,6.70
2022-10-23T04:21:42.304Z,7.90
2022-10-23T04:24:10.416Z,7.50
2022-10-23T04:26:38.586Z,7.50
2022-10-23T04:29:06.569Z,8.00
2022-10-23T04:31:34.697Z,6.90
2022-10-23T04:34:02.714Z,7.50
2022-10-23T04:36:32.297Z,6.40
2022-10-23T04:39:08.033Z,6.60
2022-10-23T04:41:39.006Z,6.50
2022-10-23T04:44:08.184Z,4.50
2022-10-23T04:46:39.392Z,5.30
2022-10-23T04:49:07.719Z,5.10
2022-10-23T04:52:10.960Z,4.80
2022-10-23T04:54:54.285Z,4.60
2022-10-23T04:57:43.634Z,4.30
2022-10-23T05:00:15.715Z,4.60
2022-10-23T05:02:48.851Z,4.80
2022-10-23T05:05:18.292Z,4.20
2022-10-23T05:08:15.633Z,4.90
2022-10-23T05:11:06.198Z,4.40
2022-10-23T05:13:39.590Z,4.70
2022-10-23T05:16:07.389Z,4.40
2022-10-23T05:18:45.652Z,5.90
2022-10-23T05:21:28.256Z,4.30
2022-10-23T05:23:57.402Z,3.90
2022-10-23T05:26:26.235Z,4.50
2022-10-23T05:28:54.413Z,5.40
2022-10-23T05:31:24.628Z,4.90
2022-10-23T05:33:55.129Z,7.30
2022-10-23T05:36:24.891Z,7.00
2022-10-23T05:38:58.023Z,6.40
2022-10-23T05:41:26.782Z,5.70
2022-10-23T05:43:58.534Z,5.60
2022-10-23T05:46:44.834Z,5.50
2022-10-23T05:49:41.659Z,4.80
2022-10-23T05:52:28.674Z,5.00
2022-10-23T05:55:16.459Z,5.10
2022-10-23T05:57:49.990Z,5.30
2022-10-23T06:00:23.327Z,5.80
2022-10-23T06:03:00.507Z,5.40
2022-10-23T06:08:20.027Z,4.60
2022-10-23T06:10:49.919Z,4.20
2022-10-23T06:13:17.805Z,3.90
2022-10-23T06:15:45.744Z,3.90
2022-10-23T06:18:20.636Z,3.00
2022-10-23T06:20:54.349Z,2.70
2022-10-23T06:23:25.929Z,2.60
2022-10-23T06:26:05.139Z,2.90
2022-10-23T06:28:40.129Z,3.20
2022-10-23T06:31:09.914Z,2.90
2022-10-23T06:33:37.758Z,3.00
2022-10-23T06:36:10.567Z,3.60
2022-10-23T06:38:40.828Z,3.60
2022-10-23T06:41:35.672Z,3.20
2022-10-23T06:44:04.100Z,4.20
2022-10-23T06:46:47.103Z,3.60
2022-10-23T06:49:33.336Z,2.90
2022-10-23T06:52:02.299Z,3.50
2022-10-23T06:54:30.167Z,4.40
2022-10-23T06:57:21.113Z,3.60
2022-10-23T06:59:50.405Z,3.40
2022-10-23T07:02:19.036Z,3.10
2022-10-23T07:04:48.073Z,3.60
2022-10-23T07:07:18.818Z,4.20
2022-10-23T07:09:48.767Z,2.90
2022-10-23T07:12:39.503Z,3.40
2022-10-23T07:15:28.362Z,3.00
2022-10-23T07:17:57.034Z,3.10
2022-10-23T07:20:25.569Z,2.80
2022-10-23T07:22:57.162Z,3.10
2022-10-23T07:25:28.897Z,2.80
2022-10-23T07:27:56.722Z,2.70
2022-10-23T07:30:25.506Z,2.90
2022-10-23T07:32:55.473Z,2.30
2022-10-23T07:35:41.592Z,3.00
2022-10-23T07:40:46.179Z,3.10
2022-10-23T07:43:18.608Z,2.60
2022-10-23T07:45:48.794Z,2.60
2022-10-23T07:48:23.895Z,2.20
2022-10-23T07:51:08.151Z,2.80
2022-10-23T07:53:38.884Z,2.80
2022-10-23T07:56:20.987Z,2.40
2022-10-23T07:59:13.009Z,2.50
2022-10-23T08:01:43.039Z,2.90
2022-10-23T08:04:11.538Z,2.20
2022-10-23T08:06:45.942Z,2.90
2022-10-23T08:09:13.889Z,2.30
2022-10-23T08:11:42.403Z,2.60
2022-10-23T08:14:10.904Z,2.70
2022-10-23T08:16:39.907Z,3.00
2022-10-23T08:19:19.799Z,2.30
2022-10-23T08:21:48.815Z,2.70
2022-10-23T08:24:18.081Z,2.50
2022-10-23T08:26:49.684Z,3.20
2022-10-23T08:29:18.928Z,2.40
2022-10-23T08:31:47.702Z,2.30
2022-10-23T08:34:22.459Z,2.30
2022-10-23T08:36:51.133Z,2.80
2022-10-23T08:39:19.155Z,2.80
2022-10-23T08:42:04.721Z,3.20
2022-10-23T08:44:40.439Z,2.10
2022-10-23T08:47:13.773Z,6.20
2022-10-23T08:50:06.402Z,2.80
2022-10-23T08:53:01.611Z,2.20
2022-10-23T08:55:40.649Z,2.20
2022-10-23T08:58:08.447Z,2.30
2022-10-23T09:00:36.656Z,2.20
2022-10-23T09:03:05.946Z,1.80
2022-10-23T09:06:03.589Z,2.10
2022-10-23T09:09:13.725Z,1.60
2022-10-23T09:11:57.631Z,1.90
2022-10-23T09:15:03.109Z,1.80
2022-10-23T09:17:35.138Z,2.10
2022-10-23T09:20:18.157Z,2.10
2022-10-23T09:22:47.815Z,1.60
2022-10-23T09:25:22.791Z,2.10
2022-10-23T09:27:56.679Z,1.60
2022-10-23T09:30:32.229Z,2.50
2022-10-23T09:33:01.652Z,1.90
2022-10-23T09:35:30.896Z,1.80
2022-10-23T09:37:58.871Z,1.90
2022-10-23T09:40:43.610Z,1.80
2022-10-23T09:43:17.629Z,1.80
2022-10-23T09:45:57.264Z,1.80
2022-10-23T09:48:26.500Z,2.00
2022-10-23T09:50:57.169Z,1.70
2022-10-23T09:53:33.844Z,2.00
2022-10-23T09:56:12.043Z,1.70
2022-10-23T09:58:52.413Z,2.40
2022-10-23T10:01:26.136Z,2.30
2022-10-23T10:06:32.751Z,2.10
2022-10-23T10:09:07.844Z,2.00
2022-10-23T10:11:58.934Z,1.80
2022-10-23T10:14:48.059Z,1.60
2022-10-23T10:17:47.296Z,1.70
2022-10-23T10:20:24.223Z,1.50
2022-10-23T10:23:13.252Z,1.50
2022-10-23T10:26:10.204Z,1.40
2022-10-23T10:28:40.681Z,1.50
2022-10-23T10:31:26.359Z,1.80
2022-10-23T10:34:40.682Z,1.80
2022-10-23T10:37:33.018Z,1.20
2022-10-23T10:40:14.060Z,1.30
2022-10-23T10:42:42.878Z,1.70
2022-10-23T10:45:39.977Z,1.80
2022-10-23T10:48:44.413Z,1.50
2022-10-23T10:51:47.458Z,1.20
2022-10-23T10:54:36.544Z,1.20
2022-10-23T10:57:14.022Z,1.40
2022-10-23T10:59:46.791Z,1.90
2022-10-23T11:02:28.706Z,1.90
2022-10-23T11:05:00.750Z,2.70
2022-10-23T11:07:37.330Z,1.40
2022-10-23T11:10:18.856Z,1.30
2022-10-23T11:12:48.184Z,1.30
2022-10-23T11:15:23.538Z,1.80
2022-10-23T11:18:06.032Z,1.40
2022-10-23T11:20:45.178Z,1.30
2022-10-23T11:23:37.362Z,1.20
2022-10-23T11:26:07.967Z,1.20
2022-10-23T11:29:13.540Z,1.30
2022-10-23T11:32:06.418Z,1.50
2022-10-23T11:34:51.020Z,1.20
2022-10-23T11:37:20.813Z,1.50
2022-10-23T11:40:21.419Z,1.20
2022-10-23T11:42:50.741Z,1.30
2022-10-23T11:45:49.034Z,1.10
2022-10-23T11:48:36.438Z,1.80
2022-10-23T11:51:05.558Z,1.50
2022-10-23T11:53:33.416Z,1.20
2022-10-23T11:56:01.157Z,1.40
2022-10-23T11:58:45.803Z,1.40
2022-10-23T12:01:24.480Z,1.80
2022-10-23T12:04:03.478Z,1.40
2022-10-23T12:06:40.463Z,1.30
2022-10-23T12:09:40.988Z,1.30
2022-10-23T12:12:08.798Z,1.60
2022-10-23T12:14:42.536Z,1.30
2022-10-23T12:17:22.599Z,1.30
2022-10-23T12:19:51.169Z,1.20
2022-10-23T12:22:21.019Z,1.40
2022-10-23T12:25:04.186Z,1.60
2022-10-23T12:27:42.134Z,1.30
2022-10-23T12:30:39.991Z,1.30
2022-10-23T12:33:16.631Z,1.30
2022-10-23T12:36:05.537Z,2.30
2022-10-23T12:38:35.691Z,1.50
2022-10-23T12:41:17.154Z,1.90
2022-10-23T12:43:54.773Z,2.40
2022-10-23T12:46:35.606Z,1.30
2022-10-23T12:49:17.698Z,1.70
2022-10-23T12:51:46.192Z,2.30
2022-10-23T12:54:19.889Z,1.90
2022-10-23T12:56:48.294Z,2.30
2022-10-23T12:59:20.347Z,2.20
2022-10-23T13:01:52.644Z,2.70
2022-10-23T13:04:29.305Z,1.50
2022-10-23T13:06:59.890Z,1.00
2022-10-23T13:09:32.074Z,1.10
2022-10-23T13:12:24.576Z,1.40
2022-10-23T13:15:07.685Z,1.20
2022-10-23T13:17:37.975Z,1.40
2022-10-23T13:20:27.124Z,1.40
2022-10-23T13:23:16.896Z,1.30
2022-10-23T13:25:56.430Z,1.20
2022-10-23T13:28:26.995Z,2.60
2022-10-23T13:31:20.880Z,1.40
2022-10-23T13:34:05.714Z,1.70
2022-10-23T13:36:37.551Z,1.60
2022-10-23T13:39:11.920Z,1.20
2022-10-23T13:41:45.208Z,1.40
2022-10-23T13:44:18.962Z,1.30
2022-10-23T13:46:48.574Z,1.40
2022-10-23T13:49:16.842Z,1.50
2022-10-23T13:51:51.940Z,1.50
2022-10-23T13:54:25.786Z,1.50
2022-10-23T13:56:55.452Z,2.20
2022-10-23T13:59:24.078Z,5.90
2022-10-23T14:01:52.936Z,2.50
2022-10-23T14:04:21.205Z,2.20
2022-10-23T14:06:49.326Z,1.80
2022-10-23T14:09:18.698Z,1.60
2022-10-23T14:11:46.687Z,1.80
2022-10-23T14:14:14.571Z,1.60
2022-10-23T14:16:42.416Z,2.20
2022-10-23T14:19:11.205Z,2.70
2022-10-23T14:21:39.176Z,2.40
2022-10-23T14:24:07.357Z,3.00
2022-10-23T14:26:35.313Z,2.40
2022-10-23T14:29:07.622Z,2.80
2022-10-23T14:31:39.382Z,2.30
2022-10-23T14:34:07.215Z,4.20
2022-10-23T14:36:49.286Z,3.90
2022-10-23T14:39:18.813Z,6.20
2022-10-23T14:41:47.195Z,3.60
2022-10-23T14:44:15.011Z,4.20
2022-10-23T14:46:43.023Z,4.40
2022-10-23T14:49:11.000Z,2.70
2022-10-23T14:51:38.770Z,3.20
2022-10-23T14:54:07.929Z,2.90
2022-10-23T14:56:38.387Z,3.60
2022-10-23T14:59:08.050Z,5.00
2022-10-23T15:01:45.273Z,8.20
2022-10-23T15:04:15.770Z,7.00
2022-10-23T15:06:43.682Z,4.30
2022-10-23T15:09:11.470Z,3.90
2022-10-23T15:11:40.122Z,4.20
2022-10-23T15:14:08.563Z,5.20
2022-10-23T15:16:41.727Z,5.40
2022-10-23T15:19:18.546Z,5.00
2022-10-23T15:21:48.036Z,5.20
2022-10-23T15:24:17.466Z,6.60
2022-10-23T15:26:45.552Z,8.80
2022-10-23T15:29:14.969Z,6.80
2022-10-23T15:31:47.345Z,6.80
2022-10-23T15:34:19.072Z,7.10
2022-10-23T15:36:48.381Z,8.40
2022-10-23T15:39:19.521Z,29.70
2022-10-23T15:41:50.063Z,25.10
2022-10-23T15:44:19.739Z,10.90
2022-10-23T15:46:48.652Z,6.40
2022-10-23T15:49:16.815Z,6.50
2022-10-23T15:51:45.285Z,7.40
2022-10-23T15:54:19.202Z,5.70
2022-10-23T15:56:50.141Z,4.70
2022-10-23T15:59:20.883Z,4.10
2022-10-23T16:01:49.317Z,5.40
2022-10-23T16:04:18.553Z,5.40
2022-10-23T16:06:46.713Z,7.80
2022-10-23T16:09:15.600Z,6.80
2022-10-23T16:11:43.685Z,6.70
2022-10-23T16:14:15.282Z,6.00
2022-10-23T16:16:43.830Z,5.90
2022-10-23T16:19:12.512Z,5.60
2022-10-23T16:21:41.505Z,6.10
2022-10-23T16:24:10.282Z,7.10
2022-10-23T16:26:39.896Z,7.50
2022-10-23T16:29:09.753Z,8.30
2022-10-23T16:31:37.981Z,6.40
2022-10-23T16:34:06.300Z,6.90
2022-10-23T16:36:34.848Z,6.30
2022-10-23T16:39:25.343Z,6.60
2022-10-23T16:42:26.007Z,6.80
2022-10-23T16:45:07.777Z,5.90
2022-10-23T16:47:36.117Z,6.30
2022-10-23T16:50:04.342Z,15.70
2022-10-23T16:52:33.412Z,22.40
2022-10-23T16:55:01.378Z,14.90
2022-10-23T16:57:29.452Z,21.50
2022-10-23T16:59:57.475Z,25.70
2022-10-23T17:02:25.562Z,22.20
2022-10-23T17:04:53.678Z,15.90
2022-10-23T17:07:24.171Z,21.80
2022-10-23T17:09:52.365Z,24.90
2022-10-23T17:12:20.333Z,12.20
2022-10-23T17:14:48.245Z,17.10
2022-10-23T17:17:16.268Z,23.70
2022-10-23T17:19:45.937Z,15.70
2022-10-23T17:22:15.477Z,32.10
2022-10-23T17:24:46.233Z,20.70
2022-10-23T17:27:17.136Z,65.30
2022-10-23T17:29:45.018Z,40.80
2022-10-23T17:32:13.266Z,44.10
2022-10-23T17:34:41.477Z,54.40
2022-10-23T17:37:10.368Z,77.40
2022-10-23T17:39:38.334Z,58.20
2022-10-23T17:42:06.705Z,56.40
2022-10-23T17:44:34.673Z,43.50
2022-10-23T17:47:02.424Z,38.20
2022-10-23T17:49:30.396Z,41.90
2022-10-23T17:51:58.385Z,31.40
2022-10-23T17:54:27.375Z,35.00
2022-10-23T17:56:56.369Z,41.30
2022-10-23T17:59:24.287Z,42.30
2022-10-23T18:01:52.645Z,36.60
2022-10-23T18:04:21.361Z,36.50
2022-10-23T18:06:52.939Z,42.00
2022-10-23T18:09:22.641Z,55.50
2022-10-23T18:11:51.860Z,37.20
2022-10-23T18:14:21.595Z,23.10
2022-10-23T18:16:51.173Z,52.70
2022-10-23T18:19:19.547Z,72.00
2022-10-23T18:21:48.237Z,66.30
2022-10-23T18:24:17.535Z,51.70
2022-10-23T18:26:47.932Z,37.70
2022-10-23T18:29:17.535Z,27.90
2022-10-23T18:31:48.247Z,19.00
2022-10-23T18:34:24.873Z,19.70
2022-10-23T18:36:54.787Z,17.90
2022-10-23T18:39:25.574Z,19.60
2022-10-23T18:41:56.625Z,15.00
2022-10-23T18:44:29.194Z,14.60
2022-10-23T18:46:59.184Z,15.40
2022-10-23T18:49:28.087Z,17.70
2022-10-23T18:51:58.237Z,18.40
2022-10-23T18:54:26.232Z,18.70
2022-10-23T18:56:54.215Z,18.50
2022-10-23T18:59:22.071Z,22.10
2022-10-23T19:01:50.655Z,22.80
2022-10-23T19:04:19.108Z,22.90
2022-10-23T19:06:48.935Z,54.70
2022-10-23T19:09:17.577Z,29.70
2022-10-23T19:11:45.663Z,27.20
2022-10-23T19:14:13.770Z,21.20
2022-10-23T19:16:51.555Z,24.00
2022-10-23T19:19:23.222Z,28.00
2022-10-23T19:21:52.318Z,21.40
2022-10-23T19:24:33.719Z,37.40
2022-10-23T19:27:02.622Z,39.20
2022-10-23T19:29:31.441Z,48.90
2022-10-23T19:32:00.365Z,34.50
2022-10-23T19:34:28.443Z,38.40
2022-10-23T19:36:56.672Z,46.60
2022-10-23T19:39:25.995Z,45.30
2022-10-23T19:41:54.326Z,37.50
2022-10-23T19:44:22.256Z,32.90
2022-10-23T19:46:50.776Z,32.70
2022-10-23T19:49:18.794Z,27.70
2022-10-23T19:51:51.266Z,23.20
2022-10-23T19:54:21.189Z,23.10
2022-10-23T19:56:49.842Z,30.10
2022-10-23T19:59:18.490Z,30.80
2022-10-23T20:01:48.953Z,23.50
2022-10-23T20:04:18.745Z,12.50
2022-10-23T20:06:47.363Z,11.70
2022-10-23T20:09:15.256Z,7.70
2022-10-23T20:11:45.310Z,11.00
2022-10-23T20:14:13.674Z,14.20
2022-10-23T20:16:44.924Z,14.90
2022-10-23T20:21:47.596Z,10.80
2022-10-23T20:24:17.849Z,16.30
2022-10-23T20:26:49.223Z,14.30
2022-10-23T20:29:17.180Z,15.60
2022-10-23T20:31:45.089Z,15.60
2022-10-23T20:34:13.311Z,16.80
2022-10-23T20:36:46.433Z,16.30
2022-10-23T20:39:19.064Z,15.80
2022-10-23T20:41:47.959Z,14.60
2022-10-23T20:46:50.920Z,14.70
2022-10-23T20:49:19.161Z,13.60
2022-10-23T20:51:55.649Z,15.60
2022-10-23T20:54:26.881Z,15.40
2022-10-23T20:56:57.018Z,15.70
2022-10-23T20:59:25.712Z,14.00
2022-10-23T21:01:55.514Z,13.80
2022-10-23T21:04:27.803Z,12.00
2022-10-23T21:07:09.398Z,12.50
2022-10-23T21:09:39.232Z,12.50
2022-10-23T21:12:08.112Z,13.30
2022-10-23T21:14:36.462Z,15.70
2022-10-23T21:17:04.682Z,12.60
2022-10-23T21:19:32.553Z,13.40
2022-10-23T21:22:00.579Z,13.40
2022-10-23T21:24:28.343Z,15.70
2022-10-23T21:26:56.597Z,12.50
2022-10-23T21:29:24.620Z,13.00
2022-10-23T21:31:57.852Z,13.50
2022-10-23T21:34:26.949Z,16.40
2022-10-23T21:39:44.240Z,15.10
2022-10-23T21:42:13.661Z,15.40
2022-10-23T21:44:41.708Z,13.80
2022-10-23T21:47:09.729Z,13.30
2022-10-23T21:49:38.079Z,12.20
2022-10-23T21:52:06.124Z,10.60
2022-10-23T21:54:34.070Z,11.40
2022-10-23T21:57:03.510Z,10.20
2022-10-23T21:59:35.451Z,10.10
2022-10-23T22:02:04.143Z,8.20
2022-10-23T22:04:32.300Z,11.40
2022-10-23T22:07:00.464Z,11.30
2022-10-23T22:09:28.718Z,12.30
2022-10-23T22:11:56.887Z,11.20
2022-10-23T22:14:24.801Z,19.20
2022-10-23T22:16:53.303Z,13.10
2022-10-23T22:19:22.491Z,13.40
2022-10-23T22:21:51.132Z,11.80
2022-10-23T22:24:19.194Z,12.10
2022-10-23T22:26:53.402Z,12.30
2022-10-23T22:29:23.952Z,11.80
2022-10-23T22:31:52.237Z,12.80
2022-10-23T22:34:48.248Z,11.90
2022-10-23T22:37:14.318Z,16.10
2022-10-23T22:39:42.908Z,13.70
2022-10-23T22:42:11.050Z,11.60
2022-10-23T22:44:39.040Z,10.60
2022-10-23T22:47:07.300Z,9.00
2022-10-23T22:49:35.352Z,7.40
2022-10-23T22:52:03.283Z,9.70
2022-10-23T22:54:31.606Z,10.40
2022-10-23T22:56:59.622Z,12.30
2022-10-23T22:59:27.507Z,9.40
2022-10-23T23:01:55.474Z,10.50
2022-10-23T23:04:37.401Z,9.30
2022-10-23T23:07:12.357Z,9.10
2022-10-23T23:09:42.143Z,9.70
2022-10-23T23:12:12.468Z,11.00
2022-10-23T23:14:41.170Z,10.40
2022-10-23T23:17:10.201Z,10.40
2022-10-23T23:19:38.432Z,8.20
2022-10-23T23:22:06.851Z,8.00
2022-10-23T23:24:34.801Z,9.50
2022-10-23T23:27:02.599Z,8.80
2022-10-23T23:29:31.086Z,9.40
2022-10-23T23:31:58.943Z,9.80
2022-10-23T23:34:26.855Z,9.60
2022-10-23T23:36:54.940Z,9.80
2022-10-23T23:39:22.779Z,7.90
2022-10-23T23:41:50.593Z,8.90
2022-10-23T23:44:18.414Z,9.30
2022-10-23T23:46:46.261Z,7.00
2022-10-23T23:49:14.148Z,7.40
2022-10-23T23:51:42.045Z,7.10
2022-10-23T23:54:10.063Z,7.30
2022-10-23T23:56:38.364Z,7.20
2022-10-23T23:59:06.311Z,7.20
